Time;durP1;ratioP1;P1;durP2;ratioP2;P2;SDS_P1;SDS_P2;PMS_P1;PMS_P2;Temp;Humidity;BMP_temperature;BMP_pressure;BME280_temperature;BME280_humidity;BME280_pressure;Samples;Min_cycle;Max_cycle;Signal;HPM_P1;HPM_P2
2022/08/28 00:02:13;;;;;;;4.60;4.20;;;;;;;-144.47;100.00;61586.06;5046762;28;20086;-77
2022/08/28 00:04:38;;;;;;;5.43;4.68;;;;;;;-144.47;100.00;61586.06;5040990;28;20040;-76
2022/08/28 00:07:04;;;;;;;5.13;4.75;;;;;;;-144.47;100.00;61586.06;5047888;28;20060;-76
2022/08/28 00:09:30;;;;;;;4.75;4.20;;;;;;;-144.47;100.00;61586.06;5039009;28;20133;-76
2022/08/28 00:11:56;;;;;;;5.03;4.53;;;;;;;-144.47;100.00;61586.06;5051277;28;20024;-77
2022/08/28 00:14:23;;;;;;;6.32;4.90;;;;;;;-144.47;100.00;61586.06;5041873;28;20441;-78
2022/08/28 00:16:49;;;;;;;4.88;4.20;;;;;;;-144.47;100.00;61586.06;5047351;28;20355;-78
2022/08/28 00:19:17;;;;;;;4.85;4.18;;;;;;;-144.47;100.00;61586.06;5038467;28;20042;-79
2022/08/28 00:21:43;;;;;;;6.00;4.57;;;;;;;-144.47;100.00;61586.06;5050198;28;20455;-78
2022/08/28 00:24:09;;;;;;;5.18;4.63;;;;;;;-144.47;100.00;61586.06;5038995;28;20029;-77
2022/08/28 00:29:19;;;;;;;5.68;5.03;;;;;;;-144.47;100.00;61586.06;5040938;28;20035;-77
2022/08/28 00:31:44;;;;;;;9.57;5.07;;;;;;;-144.47;100.00;61586.06;5041256;28;20116;-76
2022/08/28 00:34:11;;;;;;;4.78;4.38;;;;;;;-144.47;100.00;61586.06;5039832;28;20448;-76
2022/08/28 00:36:37;;;;;;;4.70;4.40;;;;;;;-144.47;100.00;61586.06;5048027;28;20370;-76
2022/08/28 00:39:04;;;;;;;5.15;4.75;;;;;;;-144.47;100.00;61586.06;5035865;28;20119;-76
2022/08/28 00:41:31;;;;;;;5.50;5.00;;;;;;;-144.47;100.00;61586.06;5035574;28;20109;-76
2022/08/28 00:44:16;;;;;;;7.80;5.07;;;;;;;-144.47;100.00;61586.06;5044483;28;20036;-78
2022/08/28 00:46:44;;;;;;;5.43;4.93;;;;;;;-144.47;100.00;61586.06;5040516;28;20029;-77
2022/08/28 00:49:12;;;;;;;8.32;5.15;;;;;;;-144.47;100.00;61586.06;5035200;28;20060;-77
2022/08/28 00:54:25;;;;;;;6.40;5.18;;;;;;;-144.47;100.00;61586.06;5045434;28;20029;-75
2022/08/28 00:56:53;;;;;;;5.60;5.20;;;;;;;-144.47;100.00;61586.06;5042266;28;20680;-76
2022/08/28 00:59:22;;;;;;;6.13;5.25;;;;;;;-144.47;100.00;61586.06;5043329;28;20030;-76
2022/08/28 01:01:49;;;;;;;5.00;4.57;;;;;;;-144.47;100.00;61586.06;5042969;28;20025;-76
2022/08/28 01:04:17;;;;;;;5.10;4.70;;;;;;;-144.47;100.00;61586.06;5037790;28;20450;-77
2022/08/28 01:06:47;;;;;;;5.40;4.95;;;;;;;-144.47;100.00;61586.06;5038135;28;20041;-76
2022/08/28 01:09:14;;;;;;;4.93;4.53;;;;;;;-144.47;100.00;61586.06;5042657;28;20033;-76
2022/08/28 01:11:44;;;;;;;5.60;5.20;;;;;;;-144.47;100.00;61586.06;5044162;28;20083;-75
2022/08/28 01:14:12;;;;;;;5.57;5.07;;;;;;;-144.47;100.00;61586.06;5042637;28;20075;-76
2022/08/28 01:16:40;;;;;;;4.78;4.38;;;;;;;-144.47;100.00;61586.06;5045460;28;20036;-75
2022/08/28 01:19:11;;;;;;;5.35;4.50;;;;;;;-144.47;100.00;61586.06;5043497;28;20045;-75
2022/08/28 01:22:05;;;;;;;4.80;3.67;;;;;;;-144.47;100.00;61586.06;5042250;28;20058;-75
2022/08/28 01:24:32;;;;;;;4.47;4.18;;;;;;;-144.47;100.00;61586.06;5034125;28;20037;-75
2022/08/28 01:26:58;;;;;;;8.73;4.82;;;;;;;-144.47;100.00;61586.06;5027011;28;20029;-75
2022/08/28 01:29:24;;;;;;;7.18;5.20;;;;;;;-144.47;100.00;61586.06;5039038;28;20036;-75
2022/08/28 01:31:49;;;;;;;9.23;5.72;;;;;;;-144.47;100.00;61586.06;5042418;28;20029;-75
2022/08/28 01:34:15;;;;;;;5.05;4.40;;;;;;;-144.47;100.00;61586.06;5040277;28;20025;-76
2022/08/28 01:36:42;;;;;;;5.45;5.03;;;;;;;-144.47;100.00;61586.06;5045188;28;20135;-75
2022/08/28 01:39:22;;;;;;;4.60;4.18;;;;;;;-144.47;100.00;61586.06;5036816;28;20041;-75
2022/08/28 01:41:50;;;;;;;4.95;4.55;;;;;;;-144.47;100.00;61586.06;5024130;28;20469;-76
2022/08/28 01:44:21;;;;;;;5.22;4.82;;;;;;;22.71;100.00;61586.06;5048943;28;20021;-75
2022/08/28 01:46:46;;;;;;;4.65;4.28;;;;;;;-144.47;100.00;61586.06;5042536;28;20052;-76
2022/08/28 01:49:12;;;;;;;5.07;4.57;;;;;;;-144.47;100.00;61586.06;5049710;28;20038;-76
2022/08/28 01:51:39;;;;;;;5.65;5.15;;;;;;;-144.47;100.00;61586.06;5041377;28;20874;-75
2022/08/28 01:54:06;;;;;;;5.18;4.57;;;;;;;-144.47;100.00;61586.06;5047103;28;20548;-76
2022/08/28 01:56:32;;;;;;;5.30;4.78;;;;;;;-144.47;100.00;61586.06;5046515;28;20148;-76
2022/08/28 01:59:01;;;;;;;5.60;4.97;;;;;;;-144.47;100.00;61586.06;5042518;28;20029;-76
2022/08/28 02:01:27;;;;;;;5.53;5.13;;;;;;;-144.47;100.00;61586.06;5046826;28;20364;-75
2022/08/28 02:03:52;;;;;;;4.85;4.40;;;;;;;-144.47;100.00;61586.06;5049769;28;20029;-76
2022/08/28 02:06:18;;;;;;;5.70;5.18;;;;;;;22.25;100.00;61586.06;5046039;28;20051;-75
2022/08/28 02:08:44;;;;;;;5.53;5.13;;;;;;;-144.47;100.00;61586.06;5046800;28;20091;-74
2022/08/28 02:11:11;;;;;;;5.53;5.13;;;;;;;-144.47;100.00;61586.06;5043175;28;20385;-74
2022/08/28 02:13:38;;;;;;;5.97;4.95;;;;;;;-144.47;100.00;61586.06;5045620;28;20392;-75
2022/08/28 02:16:06;;;;;;;5.28;4.88;;;;;;;-144.47;100.00;61586.06;5042847;28;20114;-75
2022/08/28 02:18:31;;;;;;;4.88;4.55;;;;;;;-144.47;100.00;61586.06;5049340;28;20124;-75
2022/08/28 02:20:57;;;;;;;5.25;4.85;;;;;;;-144.47;100.00;61586.06;5054214;28;20117;-75
2022/08/28 02:23:22;;;;;;;5.28;4.78;;;;;;;-144.47;100.00;61586.06;5038821;28;20080;-74
2022/08/28 02:25:48;;;;;;;5.80;5.25;;;;;;;-144.47;100.00;61586.06;5042083;28;20029;-75
2022/08/28 02:28:13;;;;;;;6.40;5.78;;;;;;;-144.47;100.00;61586.06;5044857;28;20116;-74
2022/08/28 02:30:39;;;;;;;5.72;5.32;;;;;;;-144.47;100.00;61586.06;5044049;28;20041;-73
2022/08/28 02:33:05;;;;;;;7.55;5.88;;;;;;;-144.47;100.00;61586.06;5043116;28;20113;-73
2022/08/28 02:35:31;;;;;;;6.63;6.03;;;;;;;-144.47;100.00;61586.06;5050408;28;20430;-75
2022/08/28 02:37:57;;;;;;;7.38;6.78;;;;;;;-144.47;100.00;61586.06;5043180;28;20325;-76
2022/08/28 02:40:24;;;;;;;6.97;6.40;;;;;;;-144.47;100.00;61586.06;5036810;28;20029;-75
2022/08/28 02:42:50;;;;;;;6.95;6.28;;;;;;;-144.47;100.00;61586.06;5041746;28;20023;-75
2022/08/28 02:45:17;;;;;;;6.78;6.28;;;;;;;-144.47;100.00;61586.06;5047968;28;20036;-76
2022/08/28 02:47:44;;;;;;;7.28;6.72;;;;;;;-144.47;100.00;61586.06;5040033;28;20033;-74
2022/08/28 02:50:12;;;;;;;7.70;6.63;;;;;;;-144.47;100.00;61586.06;5040114;28;20051;-74
2022/08/28 02:52:38;;;;;;;7.38;6.68;;;;;;;-144.47;100.00;61586.06;5040867;28;20025;-74
2022/08/28 02:55:05;;;;;;;7.78;6.53;;;;;;;20.98;100.00;61586.06;5046832;28;20087;-76
2022/08/28 02:57:31;;;;;;;6.38;5.88;;;;;;;-144.47;100.00;61586.06;5041783;28;20029;-76
2022/08/28 02:59:58;;;;;;;7.18;6.47;;;;;;;187.31;100.00;61586.06;5047154;28;20409;-76
2022/08/28 03:02:24;;;;;;;7.45;6.75;;;;;;;-144.47;100.00;61586.06;5046767;28;20056;-76
2022/08/28 03:04:50;;;;;;;8.02;7.03;;;;;;;-144.47;100.00;61586.06;5044659;28;20024;-76
2022/08/28 03:07:16;;;;;;;7.10;6.53;;;;;;;-144.47;100.00;61586.06;5050187;28;20060;-76
2022/08/28 03:09:42;;;;;;;7.63;7.00;;;;;;;-144.47;100.00;61586.06;5046893;28;20093;-76
2022/08/28 03:12:09;;;;;;;7.72;7.15;;;;;;;-144.47;100.00;61586.06;5043619;28;20021;-76
2022/08/28 03:14:35;;;;;;;7.45;6.82;;;;;;;-144.47;100.00;61586.06;5044970;28;20117;-76
2022/08/28 03:17:02;;;;;;;7.13;6.53;;;;;;;-144.47;100.00;61586.06;5036402;28;20029;-77
2022/08/28 03:19:28;;;;;;;8.43;7.78;;;;;;;21.00;100.00;61586.06;5045368;28;20079;-76
2022/08/28 03:21:54;;;;;;;7.18;6.50;;;;;;;-144.47;100.00;61586.06;5049696;28;20037;-75
2022/08/28 03:24:23;;;;;;;7.00;6.47;;;;;;;-144.47;100.00;61586.06;5044322;28;20029;-75
2022/08/28 03:26:49;;;;;;;7.20;6.50;;;;;;;-144.47;100.00;61586.06;5042108;28;20037;-75
2022/08/28 03:29:15;;;;;;;7.80;7.10;;;;;;;21.26;100.00;61586.06;5041633;28;20441;-74
2022/08/28 03:31:40;;;;;;;7.85;6.85;;;;;;;-144.47;100.00;61586.06;5045833;28;20044;-76
2022/08/28 03:34:06;;;;;;;8.60;7.90;;;;;;;-144.47;100.00;61586.06;5022553;28;20040;-76
2022/08/28 03:36:33;;;;;;;8.73;7.90;;;;;;;-144.47;100.00;61586.06;5045827;28;20045;-76
2022/08/28 03:39:01;;;;;;;9.80;9.05;;;;;;;-144.47;100.00;61586.06;5040841;28;20059;-75
2022/08/28 03:41:28;;;;;;;9.85;8.95;;;;;;;-144.47;100.00;61586.06;5038315;28;20061;-77
2022/08/28 03:43:56;;;;;;;10.02;9.07;;;;;;;-144.47;100.00;61586.06;5045525;28;20508;-76
2022/08/28 03:46:23;;;;;;;9.23;8.55;;;;;;;-144.47;100.00;61586.06;5042413;28;20037;-76
2022/08/28 03:48:50;;;;;;;9.05;8.27;;;;;;;-144.47;100.00;61586.06;5043935;28;20021;-76
2022/08/28 03:51:24;;;;;;;8.95;8.27;;;;;;;-144.47;100.00;61586.06;5037021;28;20025;-77
2022/08/28 03:53:51;;;;;;;9.77;8.95;;;;;;;-144.47;100.00;61586.06;5039718;28;20021;-76
2022/08/28 03:56:21;;;;;;;10.93;9.82;;;;;;;187.31;100.00;61586.06;5024334;28;20100;-75
2022/08/28 03:58:50;;;;;;;10.27;9.27;;;;;;;187.31;100.00;61586.06;5050148;28;20033;-73
2022/08/28 04:01:16;;;;;;;10.57;9.45;;;;;;;187.31;100.00;61586.06;5043290;28;20035;-74
2022/08/28 04:03:41;;;;;;;10.68;9.63;;;;;;;187.31;100.00;61586.06;5038535;28;20037;-76
2022/08/28 04:06:07;;;;;;;9.70;8.90;;;;;;;187.31;100.00;61586.06;5039641;28;20121;-76
2022/08/28 04:08:32;;;;;;;9.18;8.57;;;;;;;20.31;100.00;61586.06;5040069;28;20087;-76
2022/08/28 04:10:59;;;;;;;9.65;8.75;;;;;;;-144.47;100.00;61586.06;5041122;28;20025;-73
2022/08/28 04:13:26;;;;;;;9.90;9.10;;;;;;;-144.47;100.00;61586.06;5046336;28;20043;-75
2022/08/28 04:16:04;;;;;;;8.68;8.07;;;;;;;-144.47;100.00;61586.06;5046236;28;20048;-74
2022/08/28 04:18:30;;;;;;;9.10;8.30;;;;;;;-144.47;100.00;61586.06;5040832;28;20025;-76
2022/08/28 04:21:00;;;;;;;10.00;9.18;;;;;;;-144.47;100.00;61586.06;5048636;28;20063;-75
2022/08/28 04:23:26;;;;;;;10.50;8.68;;;;;;;-144.47;100.00;61586.06;5032581;28;20025;-76
2022/08/28 04:25:52;;;;;;;10.27;8.60;;;;;;;-144.47;100.00;61586.06;5041855;28;20086;-75
2022/08/28 04:28:18;;;;;;;10.00;8.13;;;;;;;-144.47;100.00;61586.06;5033261;28;20033;-76
2022/08/28 04:30:44;;;;;;;9.10;8.20;;;;;;;-144.47;100.00;61586.06;5048615;28;20043;-76
2022/08/28 04:33:10;;;;;;;9.45;8.50;;;;;;;-144.47;100.00;61586.06;5038282;28;20033;-75
2022/08/28 04:35:35;;;;;;;8.80;8.05;;;;;;;21.26;100.00;61586.06;5046559;28;20366;-76
2022/08/28 04:38:01;;;;;;;8.68;7.97;;;;;;;21.26;100.00;61586.06;5038045;28;20061;-75
2022/08/28 04:40:26;;;;;;;9.40;8.75;;;;;;;20.61;100.00;61586.06;5031076;28;20040;-74
2022/08/28 04:42:52;;;;;;;9.75;8.82;;;;;;;187.31;100.00;61586.06;5040679;28;20113;-75
2022/08/28 04:45:20;;;;;;;9.43;8.63;;;;;;;187.31;100.00;61586.06;5045903;28;20033;-74
2022/08/28 04:47:47;;;;;;;9.18;8.10;;;;;;;187.31;100.00;61586.06;5039916;28;20481;-74
2022/08/28 04:50:13;;;;;;;10.15;9.10;;;;;;;187.31;100.00;61586.06;5038136;28;20083;-75
2022/08/28 04:52:41;;;;;;;10.32;8.88;;;;;;;187.31;100.00;61586.06;5044669;28;20799;-75
2022/08/28 04:55:08;;;;;;;9.38;8.48;;;;;;;19.97;100.00;61586.06;5044036;28;20773;-77
2022/08/28 04:57:33;;;;;;;9.55;8.85;;;;;;;-144.47;100.00;61586.06;5037441;28;20490;-77
2022/08/28 05:00:00;;;;;;;8.95;8.25;;;;;;;187.31;100.00;61586.06;5041303;28;20064;-75
2022/08/28 05:02:25;;;;;;;10.07;8.85;;;;;;;-144.47;100.00;61586.06;5039768;28;20108;-74
2022/08/28 05:04:51;;;;;;;9.88;8.98;;;;;;;187.31;100.00;61586.06;5037847;28;20025;-75
2022/08/28 05:07:17;;;;;;;9.93;9.02;;;;;;;-144.47;100.00;61586.06;5040167;28;20033;-74
2022/08/28 05:09:42;;;;;;;10.38;9.02;;;;;;;-144.47;100.00;61586.06;5041729;28;20060;-75
2022/08/28 05:12:11;;;;;;;9.52;8.63;;;;;;;187.31;100.00;61586.06;5040733;28;20037;-73
2022/08/28 05:14:37;;;;;;;9.50;8.65;;;;;;;-144.47;100.00;61586.06;5041905;28;20040;-75
2022/08/28 05:17:02;;;;;;;10.15;9.23;;;;;;;21.26;100.00;61586.06;5033993;28;20036;-75
2022/08/28 05:19:28;;;;;;;9.45;8.75;;;;;;;-144.47;100.00;61586.06;5043342;28;20033;-76
2022/08/28 05:21:54;;;;;;;10.55;8.57;;;;;;;20.61;100.00;61586.06;5046814;28;20044;-76
2022/08/28 05:24:20;;;;;;;8.50;7.68;;;;;;;187.31;100.00;61586.06;5036231;28;20040;-76
2022/08/28 05:26:46;;;;;;;8.27;7.60;;;;;;;20.32;100.00;61586.06;5038365;28;20520;-75
2022/08/28 05:29:12;;;;;;;8.73;8.02;;;;;;;187.31;100.00;61586.06;5038950;28;20073;-75
2022/08/28 05:31:39;;;;;;;9.40;8.70;;;;;;;187.31;100.00;61586.06;5027542;28;20029;-76
2022/08/28 05:34:06;;;;;;;9.13;8.25;;;;;;;187.31;100.00;61586.06;5042315;28;20492;-75
2022/08/28 05:36:34;;;;;;;9.30;8.50;;;;;;;21.26;100.00;61586.06;5050038;28;20185;-74
2022/08/28 05:39:02;;;;;;;9.60;8.65;;;;;;;20.41;100.00;61586.06;5044444;28;20493;-74
2022/08/28 05:41:30;;;;;;;8.65;7.95;;;;;;;20.35;100.00;61586.06;5043317;28;20653;-74
2022/08/28 05:44:01;;;;;;;9.52;8.32;;;;;;;20.39;100.00;61586.06;5030786;28;20100;-74
2022/08/28 05:46:28;;;;;;;9.63;8.93;;;;;;;187.31;100.00;61586.06;5044102;28;20082;-74
2022/08/28 05:48:58;;;;;;;10.05;8.82;;;;;;;187.31;100.00;61586.06;5043530;28;20403;-75
2022/08/28 05:51:25;;;;;;;12.02;11.05;;;;;;;187.31;100.00;61586.06;5042129;28;20029;-76
2022/08/28 05:53:52;;;;;;;12.27;11.18;;;;;;;-144.47;100.00;61586.06;5041070;28;20029;-77
2022/08/28 05:56:21;;;;;;;11.35;10.30;;;;;;;-144.47;100.00;61586.06;5039905;28;20087;-77
2022/08/28 05:58:47;;;;;;;12.18;11.07;;;;;;;-144.47;100.00;61586.06;5042709;28;20449;-76
2022/08/28 06:01:19;;;;;;;12.40;11.05;;;;;;;21.26;100.00;61586.06;5048828;28;20044;-75
2022/08/28 06:03:54;;;;;;;13.20;12.07;;;;;;;-144.47;100.00;61586.06;5047747;28;20120;-75
2022/08/28 06:06:23;;;;;;;13.70;12.48;;;;;;;-144.47;100.00;61586.06;5044209;28;20485;-76
2022/08/28 06:08:50;;;;;;;13.90;12.48;;;;;;;-144.47;100.00;61586.06;5045215;28;20033;-76
2022/08/28 06:11:20;;;;;;;14.52;13.02;;;;;;;-144.47;100.00;61586.06;5049133;28;20119;-75
2022/08/28 06:13:46;;;;;;;14.25;12.77;;;;;;;-144.47;100.00;61586.06;5048077;28;20701;-75
2022/08/28 06:16:12;;;;;;;13.23;12.13;;;;;;;-144.47;100.00;61586.06;5025743;28;20041;-75
2022/08/28 06:18:40;;;;;;;14.00;12.80;;;;;;;-144.47;100.00;61586.06;5045123;28;20025;-75
2022/08/28 06:21:06;;;;;;;14.32;12.55;;;;;;;-144.47;100.00;61586.06;5043078;28;20393;-73
2022/08/28 06:23:32;;;;;;;13.98;12.77;;;;;;;-144.47;100.00;61586.06;5047133;28;20029;-76
2022/08/28 06:25:58;;;;;;;15.10;13.80;;;;;;;20.77;100.00;61586.06;5027458;28;20033;-74
2022/08/28 06:28:26;;;;;;;14.13;13.00;;;;;;;-144.47;100.00;61586.06;5052555;28;20476;-74
2022/08/28 06:30:53;;;;;;;15.02;13.60;;;;;;;187.31;100.00;61586.06;5049649;28;20029;-75
2022/08/28 06:33:20;;;;;;;13.57;12.48;;;;;;;-144.47;100.00;61586.06;5050792;28;20393;-73
2022/08/28 06:35:48;;;;;;;14.98;13.30;;;;;;;-144.47;100.00;61586.06;5032054;28;20762;-75
2022/08/28 06:38:16;;;;;;;14.23;13.00;;;;;;;-144.47;100.00;61586.06;5024863;28;20366;-75
2022/08/28 06:40:44;;;;;;;14.68;13.20;;;;;;;-144.47;100.00;61586.06;5045133;28;20539;-75
2022/08/28 06:43:11;;;;;;;16.30;13.52;;;;;;;187.31;100.00;61586.06;5045876;28;20384;-75
2022/08/28 06:45:41;;;;;;;14.50;13.20;;;;;;;-144.47;100.00;61586.06;5051181;28;20049;-74
2022/08/28 06:48:09;;;;;;;15.35;14.05;;;;;;;-144.47;100.00;61586.06;5049474;28;20447;-75
2022/08/28 06:50:40;;;;;;;13.73;12.52;;;;;;;-144.47;100.00;61586.06;5047978;28;20101;-76
2022/08/28 06:53:08;;;;;;;14.05;12.57;;;;;;;-144.47;100.00;61586.06;5048053;28;20067;-76
2022/08/28 06:55:34;;;;;;;14.20;12.82;;;;;;;-144.47;100.00;61586.06;5045502;28;20033;-74
2022/08/28 06:57:59;;;;;;;13.18;12.07;;;;;;;-144.47;100.00;61586.06;5036813;28;20476;-75
2022/08/28 07:00:25;;;;;;;11.32;10.23;;;;;;;-144.47;100.00;61586.06;5027484;28;20029;-75
2022/08/28 07:02:50;;;;;;;10.02;9.13;;;;;;;-144.47;100.00;61586.06;5051981;28;20033;-77
2022/08/28 07:05:16;;;;;;;9.65;8.77;;;;;;;-144.47;100.00;61586.06;5047686;28;20104;-74
2022/08/28 07:07:41;;;;;;;9.82;8.93;;;;;;;-144.47;100.00;61586.06;5053348;28;20044;-74
2022/08/28 07:10:07;;;;;;;10.05;8.63;;;;;;;-144.47;100.00;61586.06;5045191;28;20047;-74
2022/08/28 07:12:33;;;;;;;10.13;9.23;;;;;;;-144.47;100.00;61586.06;5017847;28;20041;-74
2022/08/28 07:14:59;;;;;;;10.35;9.38;;;;;;;-144.47;100.00;61586.06;5049793;28;20040;-76
2022/08/28 07:17:25;;;;;;;11.88;10.68;;;;;;;-144.47;100.00;61586.06;5060526;28;20057;-76
2022/08/28 07:19:50;;;;;;;12.20;11.10;;;;;;;-144.47;100.00;61586.06;5050901;28;20071;-75
2022/08/28 07:22:16;;;;;;;11.57;10.60;;;;;;;-144.47;100.00;61586.06;5051651;28;20092;-76
2022/08/28 07:24:41;;;;;;;12.60;11.20;;;;;;;22.30;100.00;61586.06;5039217;28;20040;-75
2022/08/28 07:27:07;;;;;;;12.73;11.43;;;;;;;-144.47;100.00;61586.06;5016320;28;20069;-75
2022/08/28 07:29:34;;;;;;;12.68;11.65;;;;;;;-144.47;100.00;61586.06;5032188;28;20048;-72
2022/08/28 07:31:59;;;;;;;12.32;11.27;;;;;;;-144.47;100.00;61586.06;5044094;28;20029;-72
2022/08/28 07:34:25;;;;;;;13.25;12.05;;;;;;;-144.47;100.00;61586.06;5042262;28;20029;-72
2022/08/28 07:36:51;;;;;;;11.98;10.73;;;;;;;-144.47;100.00;61586.06;5062086;28;20044;-73
2022/08/28 07:39:17;;;;;;;12.63;11.45;;;;;;;-144.47;100.00;61586.06;5060914;28;20037;-73
2022/08/28 07:41:43;;;;;;;12.13;11.10;;;;;;;-144.47;100.00;61586.06;5068806;28;20508;-73
2022/08/28 07:46:58;;;;;;;11.57;10.52;;;;;;;62.74;100.00;61586.06;5066023;28;20361;-75
2022/08/28 07:49:24;;;;;;;12.80;11.60;;;;;;;-144.47;100.00;61586.06;5069767;28;20493;-75
2022/08/28 07:51:51;;;;;;;12.98;11.77;;;;;;;-144.47;100.00;61586.06;5070310;28;20116;-75
2022/08/28 07:54:17;;;;;;;12.57;11.48;;;;;;;-144.47;100.00;61586.06;5041397;28;20037;-74
2022/08/28 07:56:42;;;;;;;12.43;11.23;;;;;;;-144.47;100.00;61586.06;5059144;28;20036;-75
2022/08/28 07:59:10;;;;;;;12.70;11.50;;;;;;;-144.47;100.00;61586.06;5058054;28;20044;-74
2022/08/28 08:01:39;;;;;;;12.43;11.23;;;;;;;-144.47;100.00;61586.06;5062314;28;20423;-74
2022/08/28 08:04:06;;;;;;;12.07;10.80;;;;;;;-144.47;100.00;61586.06;5063279;28;20028;-74
2022/08/28 08:06:33;;;;;;;11.32;9.95;;;;;;;-144.47;100.00;61586.06;5059822;28;20025;-75
2022/08/28 08:08:59;;;;;;;11.32;10.32;;;;;;;-144.47;100.00;61586.06;5057632;28;20128;-75
2022/08/28 08:11:25;;;;;;;10.77;9.88;;;;;;;-144.47;100.00;61586.06;5062751;28;20025;-72
2022/08/28 08:13:53;;;;;;;10.20;9.18;;;;;;;-144.47;100.00;61586.06;5061085;28;20066;-75
2022/08/28 08:16:22;;;;;;;11.45;10.30;;;;;;;-144.47;100.00;61586.06;5061328;28;20134;-73
2022/08/28 08:18:49;;;;;;;13.50;9.93;;;;;;;-144.47;100.00;61586.06;5058754;28;20073;-71
2022/08/28 08:21:17;;;;;;;14.38;11.45;;;;;;;-144.47;100.00;61586.06;5045586;28;20411;-73
2022/08/28 08:23:43;;;;;;;10.23;9.32;;;;;;;-144.47;100.00;61586.06;5063276;28;20787;-72
2022/08/28 08:26:11;;;;;;;9.75;8.88;;;;;;;-144.47;100.00;61586.06;5069979;28;20037;-73
2022/08/28 08:28:38;;;;;;;12.52;8.88;;;;;;;-144.47;100.00;61586.06;5067891;28;20029;-72
2022/08/28 08:31:17;;;;;;;9.80;8.77;;;;;;;-144.47;100.00;61586.06;5056258;28;20040;-74
2022/08/28 08:33:46;;;;;;;10.95;10.00;;;;;;;-144.47;100.00;61586.06;5065564;28;20028;-75
2022/08/28 08:36:15;;;;;;;9.63;8.68;;;;;;;-144.47;100.00;61586.06;5047891;28;20049;-74
2022/08/28 08:38:41;;;;;;;9.93;8.90;;;;;;;-144.47;100.00;61586.06;5050300;28;20028;-76
2022/08/28 08:41:27;;;;;;;11.70;10.60;;;;;;;-144.47;100.00;61586.06;5045010;28;20449;-73
2022/08/28 08:44:03;;;;;;;11.50;9.93;;;;;;;-144.47;100.00;61586.06;5049630;28;20048;-74
2022/08/28 08:46:37;;;;;;;11.77;9.93;;;;;;;-144.47;100.00;61586.06;5047841;28;20056;-74
2022/08/28 08:49:09;;;;;;;10.05;9.25;;;;;;;-144.47;100.00;61586.06;5050496;28;20393;-74
2022/08/28 08:51:45;;;;;;;9.40;8.52;;;;;;;-144.47;100.00;61586.06;5046549;28;20036;-73
2022/08/28 08:54:13;;;;;;;10.38;8.98;;;;;;;-144.47;100.00;61586.06;5049256;28;20405;-74
2022/08/28 08:56:41;;;;;;;10.90;9.88;;;;;;;-144.47;100.00;61586.06;5048849;28;20384;-73
2022/08/28 08:59:11;;;;;;;9.73;8.75;;;;;;;-144.47;100.00;61586.06;5049727;28;20041;-76
2022/08/28 09:01:37;;;;;;;;;;;;;;;-144.47;100.00;61586.06;5047658;28;20033;-77
2022/08/28 09:04:21;;;;;;;12.50;8.93;;;;;;;-144.47;100.00;61586.06;5049431;28;19970;-75
2022/08/28 09:06:55;;;;;;;9.85;8.95;;;;;;;-144.47;100.00;61586.06;5048572;28;20565;-75
2022/08/28 09:09:41;;;;;;;10.10;9.07;;;;;;;-144.47;100.00;61586.06;5048298;28;20037;-76
2022/08/28 09:12:13;;;;;;;10.70;8.30;;;;;;;-144.47;100.00;61586.06;5047471;28;20100;-75
2022/08/28 09:15:03;;;;;;;10.85;8.48;;;;;;;-144.47;100.00;61586.06;5049748;28;20029;-74
2022/08/28 09:17:54;;;;;;;11.52;10.48;;;;;;;-144.47;100.00;61586.06;5045259;28;20033;-73
2022/08/28 09:20:29;;;;;;;9.07;8.18;;;;;;;-144.47;100.00;61586.06;5047224;28;20033;-73
2022/08/28 09:22:55;;;;;;;11.13;7.88;;;;;;;-144.47;100.00;61586.06;5029353;28;20032;-73
2022/08/28 09:25:43;;;;;;;9.20;8.38;;;;;;;104.25;100.00;61586.06;5047240;28;20025;-73
2022/08/28 09:28:30;;;;;;;9.82;8.82;;;;;;;62.74;100.00;61586.06;5047087;28;20388;-72
2022/08/28 09:31:07;;;;;;;9.70;8.70;;;;;;;62.74;100.00;61586.06;5034213;28;20420;-74
2022/08/28 09:33:43;;;;;;;8.52;7.82;;;;;;;104.25;100.00;61586.06;5048320;28;20029;-73
2022/08/28 09:36:45;;;;;;;9.27;6.78;;;;;;;104.25;100.00;61586.06;5045436;28;20060;-73
2022/08/28 09:39:18;;;;;;;9.30;8.40;;;;;;;25.15;100.00;61586.06;4976866;28;20078;-74
2022/08/28 09:44:50;;;;;;;11.05;8.75;;;;;;;62.74;100.00;61586.06;4971238;28;20125;-75
2022/08/28 09:47:35;;;;;;;8.73;7.72;;;;;;;104.25;100.00;61586.06;4982319;28;20459;-74
2022/08/28 09:50:28;;;;;;;9.82;8.90;;;;;;;104.25;100.00;61586.06;4982643;28;20041;-77
2022/08/28 09:52:59;;;;;;;10.30;9.27;;;;;;;62.74;100.00;61586.06;4978482;28;20117;-74
2022/08/28 09:55:55;;;;;;;10.82;8.30;;;;;;;104.25;100.00;61586.06;4983102;28;20479;-75
2022/08/28 09:58:24;;;;;;;7.93;7.05;;;;;;;104.25;100.00;61586.06;4976288;28;20045;-77
2022/08/28 10:01:04;;;;;;;7.72;6.93;;;;;;;62.74;100.00;61586.06;4983953;28;20051;-76
2022/08/28 10:03:57;;;;;;;8.15;7.28;;;;;;;104.25;100.00;61586.06;4993765;28;20038;-75
2022/08/28 10:06:27;;;;;;;9.02;8.00;;;;;;;104.25;100.00;61586.06;4978813;28;20042;-76
2022/08/28 10:09:40;;;;;;;7.57;6.85;;;;;;;104.25;100.00;61586.06;4988344;28;20487;-75
2022/08/28 10:12:11;;;;;;;7.75;7.15;;;;;;;62.74;100.00;61586.06;4945615;28;20434;-75
2022/08/28 10:14:37;;;;;;;6.85;6.25;;;;;;;26.45;100.00;61586.06;5032534;28;20025;-75
2022/08/28 10:17:27;;;;;;;7.82;7.10;;;;;;;62.74;100.00;61586.06;5037546;28;20043;-75
2022/08/28 10:19:52;;;;;;;6.95;6.38;;;;;;;-144.47;100.00;61586.06;5040633;28;20585;-75
2022/08/28 10:22:27;;;;;;;7.15;6.55;;;;;;;-144.47;100.00;61586.06;5021978;28;20041;-74
2022/08/28 10:25:09;;;;;;;7.18;6.57;;;;;;;-144.47;100.00;61586.06;5039443;28;20484;-76
2022/08/28 10:27:53;;;;;;;6.43;5.85;;;;;;;-144.47;100.00;61586.06;5027405;28;20065;-76
2022/08/28 10:30:22;;;;;;;6.40;5.80;;;;;;;-144.47;100.00;61586.06;5047036;28;20036;-74
2022/08/28 10:32:58;;;;;;;6.38;5.88;;;;;;;-144.47;100.00;61586.06;5042945;28;20051;-75
2022/08/28 10:35:32;;;;;;;4.93;4.43;;;;;;;-144.47;100.00;61586.06;5038593;28;20386;-75
2022/08/28 10:38:15;;;;;;;5.22;4.72;;;;;;;-144.47;100.00;61586.06;5044672;28;20394;-75
2022/08/28 10:41:01;;;;;;;5.25;4.75;;;;;;;-144.47;100.00;61586.06;5054450;28;20061;-76
2022/08/28 10:43:48;;;;;;;4.80;4.40;;;;;;;-144.47;100.00;61586.06;5057520;28;20111;-76
2022/08/28 10:46:18;;;;;;;4.55;4.15;;;;;;;-144.47;100.00;61586.06;5048380;28;20257;-76
2022/08/28 10:48:53;;;;;;;5.40;4.95;;;;;;;-144.47;100.00;61586.06;5054067;28;20385;-76
2022/08/28 10:51:34;;;;;;;4.40;4.03;;;;;;;-144.47;100.00;61586.06;5057977;28;20032;-76
2022/08/28 10:54:37;;;;;;;4.30;3.50;;;;;;;187.31;100.00;61586.06;5030581;28;20428;-76
2022/08/28 10:57:25;;;;;;;3.97;3.67;;;;;;;-144.47;100.00;61586.06;5041431;28;20177;-74
2022/08/28 10:59:52;;;;;;;5.03;4.15;;;;;;;-144.47;100.00;61586.06;5044123;28;20036;-74
2022/08/28 11:02:24;;;;;;;4.78;4.40;;;;;;;-144.47;100.00;61586.06;5039039;28;20390;-74
2022/08/28 11:04:52;;;;;;;4.43;4.13;;;;;;;26.27;100.00;61586.06;5027464;28;20049;-74
2022/08/28 11:07:52;;;;;;;4.68;4.10;;;;;;;-144.47;100.00;61586.06;5063009;28;20040;-74
2022/08/28 11:10:35;;;;;;;6.97;5.07;;;;;;;-144.47;100.00;61586.06;5039539;28;20448;-74
2022/08/28 11:13:03;;;;;;;4.13;3.80;;;;;;;-144.47;100.00;61586.06;5036485;28;20395;-75
2022/08/28 11:15:31;;;;;;;3.95;3.67;;;;;;;-144.47;100.00;61586.06;5050251;28;20108;-73
2022/08/28 11:18:44;;;;;;;4.25;3.85;;;;;;;-144.47;100.00;61586.06;5043297;28;20350;-73
2022/08/28 11:21:29;;;;;;;4.60;3.15;;;;;;;-144.47;100.00;61586.06;5042358;28;20483;-75
2022/08/28 11:24:17;;;;;;;3.60;3.30;;;;;;;-144.47;100.00;61586.06;5047593;28;20084;-75
2022/08/28 11:26:58;;;;;;;4.18;3.78;;;;;;;-144.47;100.00;61586.06;5060165;28;20440;-75
2022/08/28 11:30:01;;;;;;;4.05;3.50;;;;;;;-144.47;100.00;61586.06;5048915;28;20389;-74
2022/08/28 11:32:29;;;;;;;4.18;3.50;;;;;;;-144.47;100.00;61586.06;5037350;28;20101;-74